createdAt,value
2022-11-14T00:01:28.521Z,3.81
2022-11-14T00:11:35.688Z,3.63
2022-11-14T00:21:46.663Z,3.61
2022-11-14T00:31:53.598Z,3.56
2022-11-14T00:41:59.602Z,3.63
2022-11-14T00:52:05.393Z,3.66
2022-11-14T01:02:12.521Z,3.71
2022-11-14T01:12:19.747Z,3.69
2022-11-14T01:22:27.155Z,3.64
2022-11-14T01:32:33.484Z,3.61
2022-11-14T01:42:40.503Z,3.62
2022-11-14T01:52:47.677Z,3.61
2022-11-14T02:03:30.189Z,3.55
2022-11-14T02:13:37.591Z,3.44
2022-11-14T02:23:44.779Z,3.39
2022-11-14T02:33:51.786Z,3.35
2022-11-14T02:43:58.784Z,3.30
2022-11-14T02:54:05.830Z,3.37
2022-11-14T03:04:13.035Z,3.44
2022-11-14T03:14:20.633Z,3.52
2022-11-14T03:24:27.646Z,3.63
2022-11-14T03:34:34.523Z,3.72
2022-11-14T03:44:40.256Z,3.74
2022-11-14T03:54:47.169Z,3.79
2022-11-14T04:04:54.473Z,3.85
2022-11-14T04:15:00.466Z,3.97
2022-11-14T04:25:08.493Z,3.98
2022-11-14T04:35:15.565Z,3.95
2022-11-14T04:45:22.669Z,3.92
2022-11-14T04:55:30.000Z,3.91
2022-11-14T05:05:41.707Z,3.89
2022-11-14T05:15:49.768Z,3.97
2022-11-14T05:26:01.202Z,3.93
2022-11-14T05:36:10.728Z,3.98
2022-11-14T05:46:18.673Z,3.91
2022-11-14T05:56:26.131Z,3.83
2022-11-14T06:06:33.146Z,3.82
2022-11-14T06:16:40.376Z,3.85
2022-11-14T06:26:47.621Z,3.88
2022-11-14T06:36:54.687Z,3.85
2022-11-14T06:47:02.002Z,3.88
2022-11-14T06:57:08.991Z,3.95
2022-11-14T07:07:15.994Z,4.05
2022-11-14T07:17:27.115Z,4.12
2022-11-14T07:27:37.130Z,4.08
2022-11-14T07:37:44.394Z,4.10
2022-11-14T07:47:51.390Z,4.08
2022-11-14T07:58:00.613Z,4.11
2022-11-14T08:08:07.901Z,4.21
2022-11-14T08:18:15.061Z,4.32
2022-11-14T08:28:22.207Z,4.25
2022-11-14T08:38:29.681Z,4.33
2022-11-14T08:48:37.324Z,4.54
2022-11-14T08:58:44.545Z,4.85
2022-11-14T09:08:51.999Z,4.98
2022-11-14T09:18:59.009Z,5.15
2022-11-14T09:29:06.661Z,5.28
2022-11-14T09:49:21.819Z,5.39
2022-11-14T09:59:30.437Z,5.37
2022-11-14T10:09:43.246Z,5.54
2022-11-14T10:19:55.589Z,5.78
2022-11-14T10:30:04.792Z,5.88
2022-11-14T10:40:16.149Z,5.97
2022-11-14T10:50:23.205Z,6.09
2022-11-14T11:00:29.523Z,6.26
2022-11-14T11:10:59.628Z,6.72
2022-11-14T11:21:05.702Z,7.05
2022-11-14T11:31:13.977Z,7.43
2022-11-14T11:41:33.163Z,7.80
2022-11-14T11:51:38.608Z,8.13
2022-11-14T12:01:46.020Z,8.25
2022-11-14T12:11:59.106Z,8.34
2022-11-14T12:22:27.632Z,8.45
2022-11-14T12:32:39.344Z,8.48
2022-11-14T12:42:47.396Z,8.51
2022-11-14T12:52:55.012Z,8.48
2022-11-14T13:03:21.517Z,8.48
2022-11-14T13:13:46.438Z,8.38
2022-11-14T13:23:58.173Z,8.35
2022-11-14T13:34:30.764Z,8.34
2022-11-14T13:45:12.754Z,8.24
2022-11-14T13:55:21.230Z,8.10
2022-11-14T14:05:29.114Z,7.98
2022-11-14T14:15:38.106Z,7.86
2022-11-14T14:25:48.948Z,7.75
2022-11-14T14:35:56.863Z,7.59
2022-11-14T14:46:03.296Z,7.27
2022-11-14T14:56:21.142Z,6.89
2022-11-14T15:06:27.685Z,6.58
2022-11-14T15:16:34.704Z,6.32
2022-11-14T15:26:41.286Z,6.09
2022-11-14T15:37:18.231Z,5.88
2022-11-14T15:47:23.580Z,5.69
2022-11-14T15:57:32.674Z,5.56
2022-11-14T16:07:39.767Z,5.44
2022-11-14T16:17:48.986Z,5.39
2022-11-14T16:27:56.637Z,5.37
2022-11-14T16:38:03.831Z,5.32
2022-11-14T16:48:10.996Z,5.30
2022-11-14T16:58:18.227Z,5.29
2022-11-14T17:08:25.637Z,5.24
2022-11-14T17:18:38.097Z,5.16
2022-11-14T17:28:46.451Z,5.14
2022-11-14T17:38:53.888Z,5.05
2022-11-14T17:49:00.201Z,5.02
2022-11-14T17:59:07.831Z,5.03
2022-11-14T18:09:15.034Z,4.94
2022-11-14T18:19:22.197Z,4.85
2022-11-14T18:29:31.056Z,4.70
2022-11-14T18:39:38.428Z,4.57
2022-11-14T18:49:45.381Z,4.54
2022-11-14T18:59:52.482Z,4.53
2022-11-14T19:09:59.527Z,4.48
2022-11-14T19:20:10.089Z,4.45
2022-11-14T19:30:21.455Z,4.46
2022-11-14T19:40:30.086Z,4.47
2022-11-14T19:50:37.272Z,4.45
2022-11-14T20:00:44.562Z,4.40
2022-11-14T20:10:58.365Z,4.34
2022-11-14T20:21:04.169Z,4.22
2022-11-14T20:41:22.315Z,4.13
2022-11-14T20:51:29.888Z,4.24
2022-11-14T21:01:43.254Z,4.23
2022-11-14T21:11:51.125Z,4.21
2022-11-14T21:21:58.146Z,4.19
2022-11-14T21:32:05.420Z,4.15
2022-11-14T21:42:17.154Z,4.14
2022-11-14T21:52:25.962Z,4.14
2022-11-14T22:02:50.711Z,4.03
2022-11-14T22:12:58.693Z,4.08
2022-11-14T22:23:05.831Z,3.96
2022-11-14T22:33:12.928Z,3.89
2022-11-14T22:43:22.557Z,3.81
2022-11-14T22:53:29.256Z,3.67
2022-11-14T23:03:37.558Z,3.54
2022-11-14T23:13:47.029Z,3.41
2022-11-14T23:23:53.929Z,3.29
2022-11-14T23:34:01.064Z,3.21
2022-11-14T23:44:07.059Z,3.16
2022-11-14T23:54:14.276Z,3.13
